sensor_id;sensor_type;location;lat;lon;timestamp;temperature;humidity
1592;DHT22;789;51.612;7.510;2023-04-01T00:00:56;11.10;1.00
1592;DHT22;789;51.612;7.510;2023-04-01T00:03:25;11.10;1.00
1592;DHT22;789;51.612;7.510;2023-04-01T00:05:53;11.00;1.00
1592;DHT22;789;51.612;7.510;2023-04-01T00:08:20;10.90;1.00
1592;DHT22;789;51.612;7.510;2023-04-01T00:10:47;10.90;1.00
1592;DHT22;789;51.612;7.510;2023-04-01T00:13:15;10.90;1.00
1592;DHT22;789;51.612;7.510;2023-04-01T00:15:42;10.80;1.00
1592;DHT22;789;51.612;7.510;2023-04-01T00:18:09;10.70;1.00
1592;DHT22;789;51.612;7.510;2023-04-01T00:20:38;10.70;1.00
1592;DHT22;789;51.612;7.510;2023-04-01T00:23:05;10.70;1.00
1592;DHT22;789;51.612;7.510;2023-04-01T00:25:31;10.70;1.00
1592;DHT22;789;51.612;7.510;2023-04-01T00:27:58;10.70;1.00
1592;DHT22;789;51.612;7.510;2023-04-01T00:30:25;10.70;1.00
1592;DHT22;789;51.612;7.510;2023-04-01T00:32:52;10.70;1.00
1592;DHT22;789;51.612;7.510;2023-04-01T00:35:19;10.70;1.00
1592;DHT22;789;51.612;7.510;2023-04-01T00:37:47;10.70;1.00
1592;DHT22;789;51.612;7.510;2023-04-01T00:40:24;10.70;1.00
1592;DHT22;789;51.612;7.510;2023-04-01T00:42:51;10.60;1.00
1592;DHT22;789;51.612;7.510;2023-04-01T00:45:28;10.50;1.00
1592;DHT22;789;51.612;7.510;2023-04-01T00:47:56;10.60;1.00
1592;DHT22;789;51.612;7.510;2023-04-01T00:50:26;10.50;1.00
1592;DHT22;789;51.612;7.510;2023-04-01T00:52:56;10.50;1.00
1592;DHT22;789;51.612;7.510;2023-04-01T00:55:24;10.50;1.00
1592;DHT22;789;51.612;7.510;2023-04-01T00:57:55;10.50;1.00
1592;DHT22;789;51.612;7.510;2023-04-01T01:00:23;10.50;1.00
1592;DHT22;789;51.612;7.510;2023-04-01T01:02:51;10.40;1.00
1592;DHT22;789;51.612;7.510;2023-04-01T01:05:25;10.30;1.00
1592;DHT22;789;51.612;7.510;2023-04-01T01:08:02;10.30;1.00
1592;DHT22;789;51.612;7.510;2023-04-01T01:10:32;10.20;1.00
1592;DHT22;789;51.612;7.510;2023-04-01T01:13:06;10.20;1.00
1592;DHT22;789;51.612;7.510;2023-04-01T01:15:37;10.30;1.00
1592;DHT22;789;51.612;7.510;2023-04-01T01:18:10;10.30;1.00
1592;DHT22;789;51.612;7.510;2023-04-01T01:24:10;10.40;1.00
1592;DHT22;789;51.612;7.510;2023-04-01T01:26:45;10.40;1.00
1592;DHT22;789;51.612;7.510;2023-04-01T01:29:30;10.50;1.00
1592;DHT22;789;51.612;7.510;2023-04-01T01:32:09;10.50;1.00
1592;DHT22;789;51.612;7.510;2023-04-01T01:34:41;10.50;1.00
1592;DHT22;789;51.612;7.510;2023-04-01T01:37:16;10.40;1.00
1592;DHT22;789;51.612;7.510;2023-04-01T01:39:46;10.40;1.00
1592;DHT22;789;51.612;7.510;2023-04-01T01:42:15;10.40;1.00
1592;DHT22;789;51.612;7.510;2023-04-01T01:44:45;10.30;1.00
1592;DHT22;789;51.612;7.510;2023-04-01T01:47:13;10.30;1.00
1592;DHT22;789;51.612;7.510;2023-04-01T01:49:42;10.40;1.00
1592;DHT22;789;51.612;7.510;2023-04-01T01:52:10;10.40;1.00
1592;DHT22;789;51.612;7.510;2023-04-01T01:54:48;10.40;1.00
1592;DHT22;789;51.612;7.510;2023-04-01T01:57:15;10.50;1.00
1592;DHT22;789;51.612;7.510;2023-04-01T01:59:43;10.50;1.00
1592;DHT22;789;51.612;7.510;2023-04-01T02:02:13;10.40;1.00
1592;DHT22;789;51.612;7.510;2023-04-01T02:04:43;10.40;1.00
1592;DHT22;789;51.612;7.510;2023-04-01T02:07:15;10.30;1.00
1592;DHT22;789;51.612;7.510;2023-04-01T02:09:43;10.30;1.00
1592;DHT22;789;51.612;7.510;2023-04-01T02:12:14;10.30;1.00
1592;DHT22;789;51.612;7.510;2023-04-01T02:14:44;10.30;1.00
1592;DHT22;789;51.612;7.510;2023-04-01T02:17:17;10.20;1.00
1592;DHT22;789;51.612;7.510;2023-04-01T02:19:47;10.20;1.00
1592;DHT22;789;51.612;7.510;2023-04-01T02:22:17;10.20;1.00
1592;DHT22;789;51.612;7.510;2023-04-01T02:24:47;10.10;1.00
1592;DHT22;789;51.612;7.510;2023-04-01T02:27:17;10.20;1.00
1592;DHT22;789;51.612;7.510;2023-04-01T02:29:44;10.20;1.00
1592;DHT22;789;51.612;7.510;2023-04-01T02:32:13;10.20;1.00
1592;DHT22;789;51.612;7.510;2023-04-01T02:34:40;10.20;1.00
1592;DHT22;789;51.612;7.510;2023-04-01T02:37:08;10.20;1.00
1592;DHT22;789;51.612;7.510;2023-04-01T02:39:34;10.20;1.00
1592;DHT22;789;51.612;7.510;2023-04-01T02:42:01;10.20;1.00
1592;DHT22;789;51.612;7.510;2023-04-01T02:44:43;10.60;1.00
1592;DHT22;789;51.612;7.510;2023-04-01T02:47:10;10.10;1.00
1592;DHT22;789;51.612;7.510;2023-04-01T02:49:37;10.10;1.00
1592;DHT22;789;51.612;7.510;2023-04-01T02:52:04;10.20;1.00
1592;DHT22;789;51.612;7.510;2023-04-01T02:54:31;10.20;1.00
1592;DHT22;789;51.612;7.510;2023-04-01T02:56:57;10.30;1.00
1592;DHT22;789;51.612;7.510;2023-04-01T02:59:24;10.20;1.00
1592;DHT22;789;51.612;7.510;2023-04-01T03:01:55;10.30;1.00
1592;DHT22;789;51.612;7.510;2023-04-01T03:04:21;10.20;1.00
1592;DHT22;789;51.612;7.510;2023-04-01T03:06:48;10.20;1.00
1592;DHT22;789;51.612;7.510;2023-04-01T03:09:15;10.10;1.00
1592;DHT22;789;51.612;7.510;2023-04-01T03:11:42;10.10;1.00
1592;DHT22;789;51.612;7.510;2023-04-01T03:14:09;10.00;1.00
1592;DHT22;789;51.612;7.510;2023-04-01T03:16:35;10.00;1.00
1592;DHT22;789;51.612;7.510;2023-04-01T03:19:04;10.00;1.00
1592;DHT22;789;51.612;7.510;2023-04-01T03:21:30;10.00;1.00
1592;DHT22;789;51.612;7.510;2023-04-01T03:23:57;10.00;1.00
1592;DHT22;789;51.612;7.510;2023-04-01T03:26:25;10.00;1.00
1592;DHT22;789;51.612;7.510;2023-04-01T03:28:53;10.00;1.00
1592;DHT22;789;51.612;7.510;2023-04-01T03:31:20;10.00;1.00
1592;DHT22;789;51.612;7.510;2023-04-01T03:33:47;10.00;1.00
1592;DHT22;789;51.612;7.510;2023-04-01T03:36:15;10.10;1.00
1592;DHT22;789;51.612;7.510;2023-04-01T03:38:42;10.10;1.00
1592;DHT22;789;51.612;7.510;2023-04-01T03:41:12;10.00;1.00
1592;DHT22;789;51.612;7.510;2023-04-01T03:43:38;10.00;1.00
1592;DHT22;789;51.612;7.510;2023-04-01T03:46:05;10.10;1.00
1592;DHT22;789;51.612;7.510;2023-04-01T03:48:32;10.00;1.00
1592;DHT22;789;51.612;7.510;2023-04-01T03:50:59;10.00;1.00
1592;DHT22;789;51.612;7.510;2023-04-01T03:53:27;10.00;1.00
1592;DHT22;789;51.612;7.510;2023-04-01T03:55:54;10.00;1.00
1592;DHT22;789;51.612;7.510;2023-04-01T03:58:21;10.00;1.00
1592;DHT22;789;51.612;7.510;2023-04-01T04:00:47;10.10;1.00
1592;DHT22;789;51.612;7.510;2023-04-01T04:03:14;10.20;1.00
1592;DHT22;789;51.612;7.510;2023-04-01T04:05:46;10.10;1.00
1592;DHT22;789;51.612;7.510;2023-04-01T04:08:13;10.10;1.00
1592;DHT22;789;51.612;7.510;2023-04-01T04:10:42;10.00;1.00
1592;DHT22;789;51.612;7.510;2023-04-01T04:13:09;10.00;1.00
1592;DHT22;789;51.612;7.510;2023-04-01T04:15:35;10.10;1.00
1592;DHT22;789;51.612;7.510;2023-04-01T04:18:04;10.10;1.00
1592;DHT22;789;51.612;7.510;2023-04-01T04:20:34;10.10;1.00
1592;DHT22;789;51.612;7.510;2023-04-01T04:23:01;10.20;1.00
1592;DHT22;789;51.612;7.510;2023-04-01T04:25:28;10.20;1.00
1592;DHT22;789;51.612;7.510;2023-04-01T04:27:56;10.20;1.00
1592;DHT22;789;51.612;7.510;2023-04-01T04:30:23;10.30;1.00
1592;DHT22;789;51.612;7.510;2023-04-01T04:32:49;10.20;1.00
1592;DHT22;789;51.612;7.510;2023-04-01T04:35:17;10.10;1.00
1592;DHT22;789;51.612;7.510;2023-04-01T04:37:43;10.10;1.00
1592;DHT22;789;51.612;7.510;2023-04-01T04:40:10;10.00;1.00
1592;DHT22;789;51.612;7.510;2023-04-01T04:42:40;10.00;1.00
1592;DHT22;789;51.612;7.510;2023-04-01T04:45:09;10.00;1.00
1592;DHT22;789;51.612;7.510;2023-04-01T04:47:37;9.90;1.00
1592;DHT22;789;51.612;7.510;2023-04-01T04:50:04;9.90;1.00
1592;DHT22;789;51.612;7.510;2023-04-01T04:52:31;9.90;1.00
1592;DHT22;789;51.612;7.510;2023-04-01T04:54:58;9.90;1.00
1592;DHT22;789;51.612;7.510;2023-04-01T04:57:25;9.90;1.00
1592;DHT22;789;51.612;7.510;2023-04-01T04:59:52;10.00;1.00
1592;DHT22;789;51.612;7.510;2023-04-01T05:02:20;10.00;1.00
1592;DHT22;789;51.612;7.510;2023-04-01T05:04:47;10.00;1.00
1592;DHT22;789;51.612;7.510;2023-04-01T05:07:14;10.10;1.00
1592;DHT22;789;51.612;7.510;2023-04-01T05:09:41;10.10;1.00
1592;DHT22;789;51.612;7.510;2023-04-01T05:12:07;10.10;1.00
1592;DHT22;789;51.612;7.510;2023-04-01T05:14:34;10.00;1.00
1592;DHT22;789;51.612;7.510;2023-04-01T05:17:01;10.10;1.00
1592;DHT22;789;51.612;7.510;2023-04-01T05:19:29;10.10;1.00
1592;DHT22;789;51.612;7.510;2023-04-01T05:21:56;10.10;1.00
1592;DHT22;789;51.612;7.510;2023-04-01T05:24:22;10.10;1.00
1592;DHT22;789;51.612;7.510;2023-04-01T05:26:49;10.20;1.00
1592;DHT22;789;51.612;7.510;2023-04-01T05:29:16;10.20;1.00
1592;DHT22;789;51.612;7.510;2023-04-01T05:31:43;10.20;1.00
1592;DHT22;789;51.612;7.510;2023-04-01T05:34:09;10.30;1.00
1592;DHT22;789;51.612;7.510;2023-04-01T05:36:38;10.50;1.00
1592;DHT22;789;51.612;7.510;2023-04-01T05:39:05;10.40;1.00
1592;DHT22;789;51.612;7.510;2023-04-01T05:41:34;10.30;1.00
1592;DHT22;789;51.612;7.510;2023-04-01T05:44:01;10.20;1.00
1592;DHT22;789;51.612;7.510;2023-04-01T05:46:29;10.30;1.00
1592;DHT22;789;51.612;7.510;2023-04-01T05:48:56;10.30;1.00
1592;DHT22;789;51.612;7.510;2023-04-01T05:51:23;10.30;1.00
1592;DHT22;789;51.612;7.510;2023-04-01T05:53:51;10.40;1.00
1592;DHT22;789;51.612;7.510;2023-04-01T05:56:18;10.40;1.00
1592;DHT22;789;51.612;7.510;2023-04-01T05:58:47;10.30;1.00
1592;DHT22;789;51.612;7.510;2023-04-01T06:01:19;10.30;1.00
1592;DHT22;789;51.612;7.510;2023-04-01T06:03:46;10.40;1.00
1592;DHT22;789;51.612;7.510;2023-04-01T06:06:15;10.70;1.00
1592;DHT22;789;51.612;7.510;2023-04-01T06:08:42;10.30;1.00
1592;DHT22;789;51.612;7.510;2023-04-01T06:11:19;10.40;1.00
1592;DHT22;789;51.612;7.510;2023-04-01T06:14:11;10.40;1.00
1592;DHT22;789;51.612;7.510;2023-04-01T06:16:57;10.40;1.00
1592;DHT22;789;51.612;7.510;2023-04-01T06:19:33;10.40;1.00
1592;DHT22;789;51.612;7.510;2023-04-01T06:22:27;10.50;1.00
1592;DHT22;789;51.612;7.510;2023-04-01T06:25:18;10.50;1.00
1592;DHT22;789;51.612;7.510;2023-04-01T06:31:11;10.60;1.00
1592;DHT22;789;51.612;7.510;2023-04-01T06:34:00;10.60;1.00
1592;DHT22;789;51.612;7.510;2023-04-01T06:36:44;10.60;1.00
1592;DHT22;789;51.612;7.510;2023-04-01T06:39:38;10.60;1.00
1592;DHT22;789;51.612;7.510;2023-04-01T06:45:20;10.60;1.00
1592;DHT22;789;51.612;7.510;2023-04-01T06:48:16;10.60;1.00
1592;DHT22;789;51.612;7.510;2023-04-01T06:50:54;10.60;1.00
1592;DHT22;789;51.612;7.510;2023-04-01T06:53:27;10.70;1.00
1592;DHT22;789;51.612;7.510;2023-04-01T06:55:59;10.90;1.00
1592;DHT22;789;51.612;7.510;2023-04-01T06:58:30;10.90;1.00
1592;DHT22;789;51.612;7.510;2023-04-01T07:01:02;11.00;1.00
1592;DHT22;789;51.612;7.510;2023-04-01T07:03:33;10.80;1.00
1592;DHT22;789;51.612;7.510;2023-04-01T07:06:03;10.80;1.00
1592;DHT22;789;51.612;7.510;2023-04-01T07:08:34;10.90;1.00
1592;DHT22;789;51.612;7.510;2023-04-01T07:11:04;10.90;1.00
1592;DHT22;789;51.612;7.510;2023-04-01T07:13:34;10.90;1.00
1592;DHT22;789;51.612;7.510;2023-04-01T07:16:11;10.90;1.00
1592;DHT22;789;51.612;7.510;2023-04-01T07:18:44;10.60;1.00
1592;DHT22;789;51.612;7.510;2023-04-01T07:21:22;10.90;1.00
1592;DHT22;789;51.612;7.510;2023-04-01T07:23:51;10.80;1.00
1592;DHT22;789;51.612;7.510;2023-04-01T07:26:23;10.90;1.00
1592;DHT22;789;51.612;7.510;2023-04-01T07:28:57;10.90;1.00
1592;DHT22;789;51.612;7.510;2023-04-01T07:31:34;10.80;1.00
1592;DHT22;789;51.612;7.510;2023-04-01T07:34:12;10.90;1.00
1592;DHT22;789;51.612;7.510;2023-04-01T07:36:47;11.00;1.00
1592;DHT22;789;51.612;7.510;2023-04-01T07:39:27;11.00;1.00
1592;DHT22;789;51.612;7.510;2023-04-01T07:42:04;11.00;1.00
1592;DHT22;789;51.612;7.510;2023-04-01T07:44:39;11.00;1.00
1592;DHT22;789;51.612;7.510;2023-04-01T07:47:26;10.90;1.00
1592;DHT22;789;51.612;7.510;2023-04-01T07:50:16;10.90;1.00
1592;DHT22;789;51.612;7.510;2023-04-01T07:52:54;10.90;1.00
1592;DHT22;789;51.612;7.510;2023-04-01T07:55:32;10.90;1.00
1592;DHT22;789;51.612;7.510;2023-04-01T07:58:08;10.80;1.00
1592;DHT22;789;51.612;7.510;2023-04-01T08:00:42;10.90;1.00
1592;DHT22;789;51.612;7.510;2023-04-01T08:03:25;10.90;1.00
1592;DHT22;789;51.612;7.510;2023-04-01T08:06:00;11.00;1.00
1592;DHT22;789;51.612;7.510;2023-04-01T08:08:39;11.00;1.00
1592;DHT22;789;51.612;7.510;2023-04-01T08:11:14;11.00;1.00
1592;DHT22;789;51.612;7.510;2023-04-01T08:13:48;11.10;1.00
1592;DHT22;789;51.612;7.510;2023-04-01T08:16:21;11.20;1.00
1592;DHT22;789;51.612;7.510;2023-04-01T08:18:57;11.10;1.00
1592;DHT22;789;51.612;7.510;2023-04-01T08:21:32;11.10;1.00
1592;DHT22;789;51.612;7.510;2023-04-01T08:24:06;11.20;1.00
1592;DHT22;789;51.612;7.510;2023-04-01T08:26:42;11.30;1.00
1592;DHT22;789;51.612;7.510;2023-04-01T08:29:14;11.50;1.00
1592;DHT22;789;51.612;7.510;2023-04-01T08:31:46;11.50;1.00
1592;DHT22;789;51.612;7.510;2023-04-01T08:34:18;11.60;1.00
1592;DHT22;789;51.612;7.510;2023-04-01T08:36:50;11.70;1.00
1592;DHT22;789;51.612;7.510;2023-04-01T08:39:24;11.80;1.00
1592;DHT22;789;51.612;7.510;2023-04-01T08:42:18;11.90;1.00
1592;DHT22;789;51.612;7.510;2023-04-01T08:45:21;11.90;1.00
1592;DHT22;789;51.612;7.510;2023-04-01T08:48:12;12.00;1.00
1592;DHT22;789;51.612;7.510;2023-04-01T08:51:04;11.90;1.00
1592;DHT22;789;51.612;7.510;2023-04-01T08:53:47;11.90;1.00
1592;DHT22;789;51.612;7.510;2023-04-01T08:56:20;11.90;1.00
1592;DHT22;789;51.612;7.510;2023-04-01T08:58:59;11.90;1.00
1592;DHT22;789;51.612;7.510;2023-04-01T09:01:51;11.80;1.00
1592;DHT22;789;51.612;7.510;2023-04-01T09:04:30;11.90;1.00
1592;DHT22;789;51.612;7.510;2023-04-01T09:07:07;11.90;1.00
1592;DHT22;789;51.612;7.510;2023-04-01T09:09:52;11.90;1.00
1592;DHT22;789;51.612;7.510;2023-04-01T09:12:34;11.80;1.00
1592;DHT22;789;51.612;7.510;2023-04-01T09:15:37;11.70;1.00
1592;DHT22;789;51.612;7.510;2023-04-01T09:21:18;11.70;1.00
1592;DHT22;789;51.612;7.510;2023-04-01T09:27:05;11.70;1.00
1592;DHT22;789;51.612;7.510;2023-04-01T09:32:49;11.70;1.00
1592;DHT22;789;51.612;7.510;2023-04-01T09:35:36;11.80;1.00
1592;DHT22;789;51.612;7.510;2023-04-01T09:38:20;12.00;1.00
1592;DHT22;789;51.612;7.510;2023-04-01T09:40:54;11.80;1.00
1592;DHT22;789;51.612;7.510;2023-04-01T09:43:26;11.90;1.00
1592;DHT22;789;51.612;7.510;2023-04-01T09:46:04;11.80;1.00
1592;DHT22;789;51.612;7.510;2023-04-01T09:48:46;11.80;1.00
1592;DHT22;789;51.612;7.510;2023-04-01T09:51:26;12.10;1.00
1592;DHT22;789;51.612;7.510;2023-04-01T09:54:06;11.90;1.00
1592;DHT22;789;51.612;7.510;2023-04-01T09:57:14;12.00;1.00
1592;DHT22;789;51.612;7.510;2023-04-01T10:00:16;12.00;1.00
1592;DHT22;789;51.612;7.510;2023-04-01T10:06:15;11.90;1.00
1592;DHT22;789;51.612;7.510;2023-04-01T10:09:00;12.00;1.00
1592;DHT22;789;51.612;7.510;2023-04-01T10:11:54;12.00;1.00
1592;DHT22;789;51.612;7.510;2023-04-01T10:14:53;12.00;1.00
1592;DHT22;789;51.612;7.510;2023-04-01T10:17:56;12.00;1.00
1592;DHT22;789;51.612;7.510;2023-04-01T10:20:53;11.90;1.00
1592;DHT22;789;51.612;7.510;2023-04-01T10:23:31;11.90;1.00
1592;DHT22;789;51.612;7.510;2023-04-01T10:26:18;12.00;1.00
1592;DHT22;789;51.612;7.510;2023-04-01T10:29:23;12.00;1.00
1592;DHT22;789;51.612;7.510;2023-04-01T10:32:42;12.10;1.00
1592;DHT22;789;51.612;7.510;2023-04-01T10:35:50;12.30;1.00
1592;DHT22;789;51.612;7.510;2023-04-01T10:38:44;12.40;1.00
1592;DHT22;789;51.612;7.510;2023-04-01T10:44:43;12.50;1.00
1592;DHT22;789;51.612;7.510;2023-04-01T10:47:33;12.40;1.00
1592;DHT22;789;51.612;7.510;2023-04-01T10:50:26;12.50;1.00
1592;DHT22;789;51.612;7.510;2023-04-01T10:53:15;12.50;1.00
1592;DHT22;789;51.612;7.510;2023-04-01T11:02:29;12.60;1.00
1592;DHT22;789;51.612;7.510;2023-04-01T11:08:34;12.70;1.00
1592;DHT22;789;51.612;7.510;2023-04-01T11:11:34;12.90;1.00
1592;DHT22;789;51.612;7.510;2023-04-01T11:26:13;12.60;1.00
1592;DHT22;789;51.612;7.510;2023-04-01T11:29:02;12.60;1.00
1592;DHT22;789;51.612;7.510;2023-04-01T11:31:43;12.70;1.00
1592;DHT22;789;51.612;7.510;2023-04-01T11:37:22;12.90;1.00
1592;DHT22;789;51.612;7.510;2023-04-01T11:40:03;13.00;1.00
1592;DHT22;789;51.612;7.510;2023-04-01T11:42:40;13.00;1.00
1592;DHT22;789;51.612;7.510;2023-04-01T11:45:18;13.00;1.00
1592;DHT22;789;51.612;7.510;2023-04-01T11:48:13;12.90;1.00
1592;DHT22;789;51.612;7.510;2023-04-01T11:51:01;12.90;1.00
1592;DHT22;789;51.612;7.510;2023-04-01T11:53:41;12.90;1.00
1592;DHT22;789;51.612;7.510;2023-04-01T11:56:19;12.80;1.00
1592;DHT22;789;51.612;7.510;2023-04-01T11:59:18;13.00;1.00
1592;DHT22;789;51.612;7.510;2023-04-01T12:01:59;13.10;1.00
1592;DHT22;789;51.612;7.510;2023-04-01T12:04:51;13.10;1.00
1592;DHT22;789;51.612;7.510;2023-04-01T12:07:40;13.30;1.00
1592;DHT22;789;51.612;7.510;2023-04-01T12:10:16;13.90;1.00
1592;DHT22;789;51.612;7.510;2023-04-01T12:12:52;13.70;1.00
1592;DHT22;789;51.612;7.510;2023-04-01T12:15:30;13.50;1.00
1592;DHT22;789;51.612;7.510;2023-04-01T12:18:05;13.60;1.00
1592;DHT22;789;51.612;7.510;2023-04-01T12:20:43;13.60;1.00
1592;DHT22;789;51.612;7.510;2023-04-01T12:23:32;13.90;1.00
1592;DHT22;789;51.612;7.510;2023-04-01T12:26:31;13.60;1.00
1592;DHT22;789;51.612;7.510;2023-04-01T12:29:08;13.50;1.00
1592;DHT22;789;51.612;7.510;2023-04-01T12:31:52;13.40;1.00
1592;DHT22;789;51.612;7.510;2023-04-01T12:34:35;13.30;1.00
1592;DHT22;789;51.612;7.510;2023-04-01T12:37:14;13.20;1.00
1592;DHT22;789;51.612;7.510;2023-04-01T12:39:55;13.10;1.00
1592;DHT22;789;51.612;7.510;2023-04-01T12:42:40;13.00;1.00
1592;DHT22;789;51.612;7.510;2023-04-01T12:48:25;13.00;1.00
1592;DHT22;789;51.612;7.510;2023-04-01T12:54:14;12.90;1.00
1592;DHT22;789;51.612;7.510;2023-04-01T12:56:52;12.90;1.00
1592;DHT22;789;51.612;7.510;2023-04-01T12:59:40;12.80;1.00
1592;DHT22;789;51.612;7.510;2023-04-01T13:02:17;12.80;1.00
1592;DHT22;789;51.612;7.510;2023-04-01T13:05:10;12.70;1.00
1592;DHT22;789;51.612;7.510;2023-04-01T13:08:05;12.70;1.00
1592;DHT22;789;51.612;7.510;2023-04-01T13:14:04;12.80;1.00
1592;DHT22;789;51.612;7.510;2023-04-01T13:16:37;12.90;1.00
1592;DHT22;789;51.612;7.510;2023-04-01T13:19:08;13.00;1.00
1592;DHT22;789;51.612;7.510;2023-04-01T13:21:51;13.10;1.00
1592;DHT22;789;51.612;7.510;2023-04-01T13:24:39;13.20;1.00
1592;DHT22;789;51.612;7.510;2023-04-01T13:27:14;13.20;1.00
1592;DHT22;789;51.612;7.510;2023-04-01T13:29:47;13.30;1.00
1592;DHT22;789;51.612;7.510;2023-04-01T13:32:26;13.30;1.00
1592;DHT22;789;51.612;7.510;2023-04-01T13:35:16;13.50;1.00
1592;DHT22;789;51.612;7.510;2023-04-01T13:38:08;13.50;1.00
1592;DHT22;789;51.612;7.510;2023-04-01T13:40:48;13.40;1.00
1592;DHT22;789;51.612;7.510;2023-04-01T13:43:20;13.30;1.00
1592;DHT22;789;51.612;7.510;2023-04-01T13:49:22;13.30;1.00
1592;DHT22;789;51.612;7.510;2023-04-01T13:52:01;13.30;1.00
1592;DHT22;789;51.612;7.510;2023-04-01T13:55:10;13.30;1.00
1592;DHT22;789;51.612;7.510;2023-04-01T13:57:52;13.10;1.00
1592;DHT22;789;51.612;7.510;2023-04-01T14:00:28;13.10;1.00
1592;DHT22;789;51.612;7.510;2023-04-01T14:03:17;13.10;1.00
1592;DHT22;789;51.612;7.510;2023-04-01T14:05:59;13.10;1.00
1592;DHT22;789;51.612;7.510;2023-04-01T14:08:36;13.00;1.00
1592;DHT22;789;51.612;7.510;2023-04-01T14:11:17;12.90;1.00
1592;DHT22;789;51.612;7.510;2023-04-01T14:13:56;12.80;1.00
1592;DHT22;789;51.612;7.510;2023-04-01T14:16:51;12.70;1.00
1592;DHT22;789;51.612;7.510;2023-04-01T14:19:27;12.70;1.00
1592;DHT22;789;51.612;7.510;2023-04-01T14:22:05;12.60;1.00
1592;DHT22;789;51.612;7.510;2023-04-01T14:24:51;12.50;1.00
1592;DHT22;789;51.612;7.510;2023-04-01T14:27:44;12.50;1.00
1592;DHT22;789;51.612;7.510;2023-04-01T14:30:25;12.50;1.00
1592;DHT22;789;51.612;7.510;2023-04-01T14:33:01;12.50;1.00
1592;DHT22;789;51.612;7.510;2023-04-01T14:35:37;12.60;1.00
1592;DHT22;789;51.612;7.510;2023-04-01T14:38:24;12.60;1.00
1592;DHT22;789;51.612;7.510;2023-04-01T14:40:56;12.70;1.00
1592;DHT22;789;51.612;7.510;2023-04-01T14:46:45;12.70;1.00
1592;DHT22;789;51.612;7.510;2023-04-01T14:49:20;12.70;1.00
1592;DHT22;789;51.612;7.510;2023-04-01T14:51:48;12.70;1.00
1592;DHT22;789;51.612;7.510;2023-04-01T14:54:19;12.60;1.00
1592;DHT22;789;51.612;7.510;2023-04-01T14:56:50;12.60;1.00
1592;DHT22;789;51.612;7.510;2023-04-01T14:59:28;12.60;1.00
1592;DHT22;789;51.612;7.510;2023-04-01T15:01:58;12.50;1.00
1592;DHT22;789;51.612;7.510;2023-04-01T15:05:04;12.60;1.00
1592;DHT22;789;51.612;7.510;2023-04-01T15:11:12;12.60;1.00
1592;DHT22;789;51.612;7.510;2023-04-01T15:17:14;12.60;1.00
1592;DHT22;789;51.612;7.510;2023-04-01T15:19:56;12.60;1.00
1592;DHT22;789;51.612;7.510;2023-04-01T15:22:39;12.60;1.00
1592;DHT22;789;51.612;7.510;2023-04-01T15:25:34;12.50;1.00
1592;DHT22;789;51.612;7.510;2023-04-01T15:28:11;12.60;1.00
1592;DHT22;789;51.612;7.510;2023-04-01T15:30:50;12.60;1.00
1592;DHT22;789;51.612;7.510;2023-04-01T15:33:29;12.60;1.00
1592;DHT22;789;51.612;7.510;2023-04-01T15:36:04;12.60;1.00
1592;DHT22;789;51.612;7.510;2023-04-01T15:38:36;12.60;1.00
1592;DHT22;789;51.612;7.510;2023-04-01T15:41:13;12.60;1.00
1592;DHT22;789;51.612;7.510;2023-04-01T15:43:43;12.60;1.00
1592;DHT22;789;51.612;7.510;2023-04-01T15:46:43;12.60;1.00
1592;DHT22;789;51.612;7.510;2023-04-01T15:49:31;12.60;1.00
1592;DHT22;789;51.612;7.510;2023-04-01T15:52:06;12.60;1.00
1592;DHT22;789;51.612;7.510;2023-04-01T15:55:05;12.60;1.00
1592;DHT22;789;51.612;7.510;2023-04-01T15:57:47;12.60;1.00
1592;DHT22;789;51.612;7.510;2023-04-01T16:00:24;13.00;1.00
1592;DHT22;789;51.612;7.510;2023-04-01T16:03:15;12.60;1.00
1592;DHT22;789;51.612;7.510;2023-04-01T16:05:59;12.90;1.00
1592;DHT22;789;51.612;7.510;2023-04-01T16:08:52;12.60;1.00
1592;DHT22;789;51.612;7.510;2023-04-01T16:11:30;12.70;1.00
1592;DHT22;789;51.612;7.510;2023-04-01T16:14:14;12.80;1.00
1592;DHT22;789;51.612;7.510;2023-04-01T16:16:57;12.70;1.00
1592;DHT22;789;51.612;7.510;2023-04-01T16:19:37;12.80;1.00
1592;DHT22;789;51.612;7.510;2023-04-01T16:22:09;12.60;1.00
1592;DHT22;789;51.612;7.510;2023-04-01T16:24:44;12.90;1.00
1592;DHT22;789;51.612;7.510;2023-04-01T16:27:16;12.80;1.00
1592;DHT22;789;51.612;7.510;2023-04-01T16:29:47;12.90;1.00
1592;DHT22;789;51.612;7.510;2023-04-01T16:32:23;12.80;1.00
1592;DHT22;789;51.612;7.510;2023-04-01T16:35:13;12.70;1.00
1592;DHT22;789;51.612;7.510;2023-04-01T16:37:48;12.90;1.00
1592;DHT22;789;51.612;7.510;2023-04-01T16:40:24;12.70;1.00
1592;DHT22;789;51.612;7.510;2023-04-01T16:42:53;12.80;1.00
1592;DHT22;789;51.612;7.510;2023-04-01T16:45:32;12.90;1.00
1592;DHT22;789;51.612;7.510;2023-04-01T16:48:07;12.70;1.00
1592;DHT22;789;51.612;7.510;2023-04-01T16:50:49;12.70;1.00
1592;DHT22;789;51.612;7.510;2023-04-01T16:53:30;12.70;1.00
1592;DHT22;789;51.612;7.510;2023-04-01T16:56:07;12.70;1.00
1592;DHT22;789;51.612;7.510;2023-04-01T16:58:41;12.70;1.00
1592;DHT22;789;51.612;7.510;2023-04-01T17:01:13;12.60;1.00
1592;DHT22;789;51.612;7.510;2023-04-01T17:03:45;12.60;1.00
1592;DHT22;789;51.612;7.510;2023-04-01T17:06:26;12.60;1.00
1592;DHT22;789;51.612;7.510;2023-04-01T17:09:13;12.60;1.00
1592;DHT22;789;51.612;7.510;2023-04-01T17:11:47;12.60;1.00
1592;DHT22;789;51.612;7.510;2023-04-01T17:14:23;12.50;1.00
1592;DHT22;789;51.612;7.510;2023-04-01T17:17:09;12.50;1.00
1592;DHT22;789;51.612;7.510;2023-04-01T17:19:47;12.50;1.00
1592;DHT22;789;51.612;7.510;2023-04-01T17:22:25;12.40;1.00
1592;DHT22;789;51.612;7.510;2023-04-01T17:25:09;12.50;1.00
1592;DHT22;789;51.612;7.510;2023-04-01T17:27:47;12.50;1.00
1592;DHT22;789;51.612;7.510;2023-04-01T17:30:33;12.50;1.00
1592;DHT22;789;51.612;7.510;2023-04-01T17:33:19;12.50;1.00
1592;DHT22;789;51.612;7.510;2023-04-01T17:35:56;12.50;1.00
1592;DHT22;789;51.612;7.510;2023-04-01T17:38:42;12.50;1.00
1592;DHT22;789;51.612;7.510;2023-04-01T17:41:24;12.50;1.00
1592;DHT22;789;51.612;7.510;2023-04-01T17:44:01;12.50;1.00
1592;DHT22;789;51.612;7.510;2023-04-01T17:46:40;12.40;1.00
1592;DHT22;789;51.612;7.510;2023-04-01T17:49:21;12.40;1.00
1592;DHT22;789;51.612;7.510;2023-04-01T17:51:55;12.50;1.00
1592;DHT22;789;51.612;7.510;2023-04-01T17:54:30;12.50;1.00
1592;DHT22;789;51.612;7.510;2023-04-01T17:57:23;12.50;1.00
1592;DHT22;789;51.612;7.510;2023-04-01T18:00:01;12.50;1.00
1592;DHT22;789;51.612;7.510;2023-04-01T18:02:33;12.50;1.00
1592;DHT22;789;51.612;7.510;2023-04-01T18:05:27;12.50;1.00
1592;DHT22;789;51.612;7.510;2023-04-01T18:08:12;12.70;1.00
1592;DHT22;789;51.612;7.510;2023-04-01T18:10:52;12.60;1.00
1592;DHT22;789;51.612;7.510;2023-04-01T18:13:46;12.60;1.00
1592;DHT22;789;51.612;7.510;2023-04-01T18:16:37;12.50;1.00
1592;DHT22;789;51.612;7.510;2023-04-01T18:19:16;12.50;1.00
1592;DHT22;789;51.612;7.510;2023-04-01T18:21:46;12.60;1.00
1592;DHT22;789;51.612;7.510;2023-04-01T18:24:21;12.50;1.00
1592;DHT22;789;51.612;7.510;2023-04-01T18:27:02;12.60;1.00
1592;DHT22;789;51.612;7.510;2023-04-01T18:29:39;12.50;1.00
1592;DHT22;789;51.612;7.510;2023-04-01T18:32:26;12.50;1.00
1592;DHT22;789;51.612;7.510;2023-04-01T18:35:00;12.50;1.00
1592;DHT22;789;51.612;7.510;2023-04-01T18:37:32;12.50;1.00
1592;DHT22;789;51.612;7.510;2023-04-01T18:40:12;12.30;1.00
1592;DHT22;789;51.612;7.510;2023-04-01T18:42:46;12.30;1.00
1592;DHT22;789;51.612;7.510;2023-04-01T18:45:27;12.30;1.00
1592;DHT22;789;51.612;7.510;2023-04-01T18:48:06;12.40;1.00
1592;DHT22;789;51.612;7.510;2023-04-01T18:50:40;12.20;1.00